sensor_id;sensor_type;location;lat;lon;timestamp;pressure;altitude;pressure_sealevel;temperature;humidity
21011;BME280;10663;42.714;23.274;2023-04-27T00:01:11;94483.69;;;9.34;48.88
21011;BME280;10663;42.714;23.274;2023-04-27T00:02:42;94496.38;;;9.27;48.95
21011;BME280;10663;42.714;23.274;2023-04-27T00:04:14;94501.09;;;9.15;49.27
21011;BME280;10663;42.714;23.274;2023-04-27T00:05:45;94493.19;;;9.25;48.81
21011;BME280;10663;42.714;23.274;2023-04-27T00:07:16;94501.06;;;9.00;49.38
21011;BME280;10663;42.714;23.274;2023-04-27T00:08:47;94492.06;;;9.11;49.23
21011;BME280;10663;42.714;23.274;2023-04-27T00:10:18;94505.50;;;8.94;49.54
21011;BME280;10663;42.714;23.274;2023-04-27T00:11:49;94512.63;;;8.94;49.38
21011;BME280;10663;42.714;23.274;2023-04-27T00:13:20;94493.69;;;9.17;49.10
21011;BME280;10663;42.714;23.274;2023-04-27T00:14:51;94500.53;;;9.13;49.14
21011;BME280;10663;42.714;23.274;2023-04-27T00:16:22;94508.97;;;9.00;49.38
21011;BME280;10663;42.714;23.274;2023-04-27T00:17:53;94501.81;;;8.95;49.70
21011;BME280;10663;42.714;23.274;2023-04-27T00:19:24;94506.03;;;8.91;49.48
21011;BME280;10663;42.714;23.274;2023-04-27T00:20:55;94503.94;;;9.04;49.44
21011;BME280;10663;42.714;23.274;2023-04-27T00:22:26;94497.91;;;9.08;49.23
21011;BME280;10663;42.714;23.274;2023-04-27T00:23:57;94500.00;;;9.01;49.59
21011;BME280;10663;42.714;23.274;2023-04-27T00:25:28;94521.38;;;8.99;49.69
21011;BME280;10663;42.714;23.274;2023-04-27T00:26:59;94512.88;;;8.92;49.54
21011;BME280;10663;42.714;23.274;2023-04-27T00:28:29;94506.78;;;8.82;49.80
21011;BME280;10663;42.714;23.274;2023-04-27T00:30:03;94509.97;;;8.89;49.76
21011;BME280;10663;42.714;23.274;2023-04-27T00:31:36;94498.09;;;8.86;49.73
21011;BME280;10663;42.714;23.274;2023-04-27T00:33:07;94499.81;;;8.60;50.64
21011;BME280;10663;42.714;23.274;2023-04-27T00:34:38;94518.91;;;8.73;50.13
21011;BME280;10663;42.714;23.274;2023-04-27T00:36:09;94503.31;;;8.71;50.38
21011;BME280;10663;42.714;23.274;2023-04-27T00:37:41;94509.66;;;8.75;50.00
21011;BME280;10663;42.714;23.274;2023-04-27T00:39:12;94504.31;;;8.65;50.52
21011;BME280;10663;42.714;23.274;2023-04-27T00:40:42;94493.34;;;8.93;49.88
21011;BME280;10663;42.714;23.274;2023-04-27T00:42:13;94509.97;;;8.89;49.65
21011;BME280;10663;42.714;23.274;2023-04-27T00:43:46;94493.25;;;8.68;50.13
21011;BME280;10663;42.714;23.274;2023-04-27T00:45:17;94493.56;;;8.77;50.28
21011;BME280;10663;42.714;23.274;2023-04-27T00:46:48;94513.56;;;8.62;50.09
21011;BME280;10663;42.714;23.274;2023-04-27T00:48:19;94525.41;;;8.60;50.28
21011;BME280;10663;42.714;23.274;2023-04-27T00:49:50;94522.75;;;8.55;50.43
21011;BME280;10663;42.714;23.274;2023-04-27T00:51:21;94506.41;;;8.58;50.42
21011;BME280;10663;42.714;23.274;2023-04-27T00:52:57;94508.28;;;8.62;50.55
21011;BME280;10663;42.714;23.274;2023-04-27T00:54:28;94507.94;;;8.49;50.93
21011;BME280;10663;42.714;23.274;2023-04-27T00:55:59;94514.50;;;8.41;50.75
21011;BME280;10663;42.714;23.274;2023-04-27T00:57:32;94501.84;;;8.43;50.89
21011;BME280;10663;42.714;23.274;2023-04-27T00:59:03;94504.06;;;8.61;50.51
21011;BME280;10663;42.714;23.274;2023-04-27T01:00:37;94508.53;;;8.61;50.47
21011;BME280;10663;42.714;23.274;2023-04-27T01:02:10;94503.50;;;8.59;50.55
21011;BME280;10663;42.714;23.274;2023-04-27T01:03:42;94503.19;;;8.46;50.83
21011;BME280;10663;42.714;23.274;2023-04-27T01:05:13;94514.50;;;8.41;50.96
21011;BME280;10663;42.714;23.274;2023-04-27T01:06:44;94517.19;;;8.51;50.75
21011;BME280;10663;42.714;23.274;2023-04-27T01:08:15;94503.63;;;8.33;51.20
21011;BME280;10663;42.714;23.274;2023-04-27T01:09:46;94504.72;;;8.37;51.28
21011;BME280;10663;42.714;23.274;2023-04-27T01:11:17;94502.97;;;8.20;51.83
21011;BME280;10663;42.714;23.274;2023-04-27T01:12:48;94531.84;;;8.32;51.33
21011;BME280;10663;42.714;23.274;2023-04-27T01:14:18;94513.59;;;8.25;51.73
21011;BME280;10663;42.714;23.274;2023-04-27T01:15:49;94513.59;;;8.25;51.53
21011;BME280;10663;42.714;23.274;2023-04-27T01:17:20;94519.91;;;8.30;51.35
21011;BME280;10663;42.714;23.274;2023-04-27T01:18:51;94514.66;;;8.30;50.94
21011;BME280;10663;42.714;23.274;2023-04-27T01:20:23;94518.31;;;8.23;51.29
21011;BME280;10663;42.714;23.274;2023-04-27T01:21:54;94507.22;;;8.21;51.56
21011;BME280;10663;42.714;23.274;2023-04-27T01:23:25;94526.63;;;8.05;51.49
21011;BME280;10663;42.714;23.274;2023-04-27T01:24:56;94519.34;;;8.22;51.41
21011;BME280;10663;42.714;23.274;2023-04-27T01:26:27;94518.69;;;8.00;51.97
21011;BME280;10663;42.714;23.274;2023-04-27T01:27:58;94519.00;;;8.09;52.14
21011;BME280;10663;42.714;23.274;2023-04-27T01:29:29;94517.50;;;8.23;51.59
21011;BME280;10663;42.714;23.274;2023-04-27T01:31:00;94519.81;;;8.09;51.93
21011;BME280;10663;42.714;23.274;2023-04-27T01:32:30;94522.00;;;8.22;51.46
21011;BME280;10663;42.714;23.274;2023-04-27T01:34:01;94522.72;;;8.13;51.76
21011;BME280;10663;42.714;23.274;2023-04-27T01:35:33;94516.47;;;8.24;51.57
21011;BME280;10663;42.714;23.274;2023-04-27T01:37:04;94538.38;;;8.24;51.20
21011;BME280;10663;42.714;23.274;2023-04-27T01:38:35;94526.22;;;8.23;51.31
21011;BME280;10663;42.714;23.274;2023-04-27T01:40:07;94515.19;;;8.26;51.08
21011;BME280;10663;42.714;23.274;2023-04-27T01:41:38;94530.88;;;8.11;51.11
21011;BME280;10663;42.714;23.274;2023-04-27T01:43:09;94531.16;;;8.10;51.93
21011;BME280;10663;42.714;23.274;2023-04-27T01:44:41;94533.09;;;8.24;51.02
21011;BME280;10663;42.714;23.274;2023-04-27T01:46:13;94533.31;;;8.18;51.64
21011;BME280;10663;42.714;23.274;2023-04-27T01:47:45;94532.78;;;8.21;51.43
21011;BME280;10663;42.714;23.274;2023-04-27T01:49:16;94536.53;;;8.25;51.34
21011;BME280;10663;42.714;23.274;2023-04-27T01:50:46;94535.72;;;8.24;51.27
21011;BME280;10663;42.714;23.274;2023-04-27T01:52:17;94525.72;;;8.26;51.31
21011;BME280;10663;42.714;23.274;2023-04-27T01:53:48;94530.00;;;8.33;50.83
21011;BME280;10663;42.714;23.274;2023-04-27T01:55:20;94529.88;;;8.17;51.52
21011;BME280;10663;42.714;23.274;2023-04-27T01:56:51;94520.94;;;8.18;51.39
21011;BME280;10663;42.714;23.274;2023-04-27T01:58:22;94520.25;;;8.01;51.13
21011;BME280;10663;42.714;23.274;2023-04-27T01:59:53;94540.84;;;8.04;51.62
21011;BME280;10663;42.714;23.274;2023-04-27T02:01:25;94525.97;;;7.88;51.87
21011;BME280;10663;42.714;23.274;2023-04-27T02:02:56;94529.41;;;7.88;52.24
21011;BME280;10663;42.714;23.274;2023-04-27T02:04:29;94537.25;;;7.83;52.02
21011;BME280;10663;42.714;23.274;2023-04-27T02:06:01;94529.47;;;7.99;51.65
21011;BME280;10663;42.714;23.274;2023-04-27T02:07:32;94535.97;;;7.86;51.68
21011;BME280;10663;42.714;23.274;2023-04-27T02:09:03;94527.59;;;7.94;51.75
21011;BME280;10663;42.714;23.274;2023-04-27T02:10:34;94522.44;;;8.09;51.77
21011;BME280;10663;42.714;23.274;2023-04-27T02:12:05;94540.53;;;7.96;51.93
21011;BME280;10663;42.714;23.274;2023-04-27T02:13:36;94531.09;;;8.05;51.91
21011;BME280;10663;42.714;23.274;2023-04-27T02:15:08;94531.16;;;8.10;51.17
21011;BME280;10663;42.714;23.274;2023-04-27T02:16:39;94536.22;;;8.21;50.95
21011;BME280;10663;42.714;23.274;2023-04-27T02:18:10;94536.94;;;8.12;51.23
21011;BME280;10663;42.714;23.274;2023-04-27T02:19:41;94554.50;;;7.96;51.50
21011;BME280;10663;42.714;23.274;2023-04-27T02:21:12;94534.63;;;8.15;51.27
21011;BME280;10663;42.714;23.274;2023-04-27T02:22:43;94545.94;;;7.84;51.81
21011;BME280;10663;42.714;23.274;2023-04-27T02:24:14;94538.78;;;8.11;51.21
21011;BME280;10663;42.714;23.274;2023-04-27T02:25:45;94537.19;;;8.10;50.92
21011;BME280;10663;42.714;23.274;2023-04-27T02:27:16;94537.81;;;8.22;50.60
21011;BME280;10663;42.714;23.274;2023-04-27T02:28:47;94539.81;;;8.05;51.21
21011;BME280;10663;42.714;23.274;2023-04-27T02:30:19;94547.88;;;8.25;50.56
21011;BME280;10663;42.714;23.274;2023-04-27T02:31:50;94541.16;;;7.76;51.73
21011;BME280;10663;42.714;23.274;2023-04-27T02:33:21;94540.63;;;8.11;50.93
21011;BME280;10663;42.714;23.274;2023-04-27T02:34:52;94546.19;;;8.09;51.11
21011;BME280;10663;42.714;23.274;2023-04-27T02:36:23;94551.41;;;8.04;50.81
21011;BME280;10663;42.714;23.274;2023-04-27T02:37:54;94550.66;;;8.09;50.61
21011;BME280;10663;42.714;23.274;2023-04-27T02:39:25;94542.06;;;8.23;50.32
21011;BME280;10663;42.714;23.274;2023-04-27T02:40:56;94551.66;;;8.03;51.01
21011;BME280;10663;42.714;23.274;2023-04-27T02:42:28;94548.34;;;8.17;50.98
21011;BME280;10663;42.714;23.274;2023-04-27T02:43:59;94550.75;;;8.19;50.70
21011;BME280;10663;42.714;23.274;2023-04-27T02:45:30;94553.03;;;8.10;50.92
21011;BME280;10663;42.714;23.274;2023-04-27T02:47:02;94548.75;;;8.04;50.46
21011;BME280;10663;42.714;23.274;2023-04-27T02:48:33;94542.53;;;8.20;50.58
21011;BME280;10663;42.714;23.274;2023-04-27T02:50:04;94547.16;;;8.03;51.20
21011;BME280;10663;42.714;23.274;2023-04-27T02:51:38;94551.56;;;7.93;51.25
21011;BME280;10663;42.714;23.274;2023-04-27T02:53:10;94545.78;;;7.91;50.96
21011;BME280;10663;42.714;23.274;2023-04-27T02:54:41;94541.56;;;7.95;51.18
21011;BME280;10663;42.714;23.274;2023-04-27T02:56:12;94548.66;;;7.89;51.02
21011;BME280;10663;42.714;23.274;2023-04-27T02:57:43;94550.56;;;7.99;51.25
21011;BME280;10663;42.714;23.274;2023-04-27T02:59:14;94556.81;;;7.87;51.41
21011;BME280;10663;42.714;23.274;2023-04-27T03:00:44;94553.84;;;7.79;51.09
21011;BME280;10663;42.714;23.274;2023-04-27T03:02:15;94556.78;;;7.82;51.26
21011;BME280;10663;42.714;23.274;2023-04-27T03:03:46;94562.53;;;7.79;51.22
21011;BME280;10663;42.714;23.274;2023-04-27T03:05:18;94556.69;;;7.72;51.56
21011;BME280;10663;42.714;23.274;2023-04-27T03:06:52;94553.25;;;7.72;51.54
21011;BME280;10663;42.714;23.274;2023-04-27T03:08:22;94551.94;;;7.74;51.73
21011;BME280;10663;42.714;23.274;2023-04-27T03:09:53;94553.53;;;7.75;51.84
21011;BME280;10663;42.714;23.274;2023-04-27T03:11:25;94563.53;;;7.73;51.73
21011;BME280;10663;42.714;23.274;2023-04-27T03:12:56;94562.19;;;7.71;51.79
21011;BME280;10663;42.714;23.274;2023-04-27T03:14:27;94561.78;;;7.84;51.44
21011;BME280;10663;42.714;23.274;2023-04-27T03:15:58;94563.91;;;7.87;51.72
21011;BME280;10663;42.714;23.274;2023-04-27T03:17:32;94575.13;;;7.72;51.54
21011;BME280;10663;42.714;23.274;2023-04-27T03:19:03;94577.41;;;7.64;51.88
21011;BME280;10663;42.714;23.274;2023-04-27T03:20:35;94564.38;;;7.79;51.60
21011;BME280;10663;42.714;23.274;2023-04-27T03:22:06;94563.59;;;7.78;52.08
21011;BME280;10663;42.714;23.274;2023-04-27T03:23:40;94574.03;;;7.41;52.33
21011;BME280;10663;42.714;23.274;2023-04-27T03:25:11;94571.44;;;7.46;52.75
21011;BME280;10663;42.714;23.274;2023-04-27T03:26:42;94574.47;;;7.60;52.14
21011;BME280;10663;42.714;23.274;2023-04-27T03:28:13;94586.59;;;7.61;52.22
21011;BME280;10663;42.714;23.274;2023-04-27T03:29:44;94573.38;;;7.56;52.30
21011;BME280;10663;42.714;23.274;2023-04-27T03:31:15;94582.13;;;7.62;52.06
21011;BME280;10663;42.714;23.274;2023-04-27T03:32:46;94577.22;;;7.43;52.58
21011;BME280;10663;42.714;23.274;2023-04-27T03:34:17;94577.94;;;7.66;52.32
21011;BME280;10663;42.714;23.274;2023-04-27T03:35:56;94578.56;;;7.46;52.79
21011;BME280;10663;42.714;23.274;2023-04-27T03:37:27;94587.19;;;7.41;52.45
21011;BME280;10663;42.714;23.274;2023-04-27T03:39:00;94586.75;;;7.49;52.76
21011;BME280;10663;42.714;23.274;2023-04-27T03:40:31;94590.09;;;7.18;52.93
21011;BME280;10663;42.714;23.274;2023-04-27T03:42:05;94602.88;;;7.31;53.56
21011;BME280;10663;42.714;23.274;2023-04-27T03:43:36;94587.06;;;7.31;52.89
21011;BME280;10663;42.714;23.274;2023-04-27T03:45:07;94598.66;;;7.30;52.58
21011;BME280;10663;42.714;23.274;2023-04-27T03:46:39;94594.41;;;7.29;53.16
21011;BME280;10663;42.714;23.274;2023-04-27T03:48:10;94598.59;;;7.25;52.85
21011;BME280;10663;42.714;23.274;2023-04-27T03:49:41;94591.78;;;7.51;52.32
21011;BME280;10663;42.714;23.274;2023-04-27T03:51:12;94604.91;;;7.24;53.12
21011;BME280;10663;42.714;23.274;2023-04-27T03:52:43;94588.69;;;7.59;52.27
21011;BME280;10663;42.714;23.274;2023-04-27T03:54:14;94601.19;;;7.47;52.50
21011;BME280;10663;42.714;23.274;2023-04-27T03:55:45;94606.97;;;7.44;52.55
21011;BME280;10663;42.714;23.274;2023-04-27T03:57:18;94599.66;;;7.24;53.08
21011;BME280;10663;42.714;23.274;2023-04-27T03:58:49;94602.75;;;7.43;52.68
21011;BME280;10663;42.714;23.274;2023-04-27T04:00:23;94616.13;;;7.36;52.55
21011;BME280;10663;42.714;23.274;2023-04-27T04:01:54;94617.16;;;7.35;52.51
21011;BME280;10663;42.714;23.274;2023-04-27T04:03:28;94628.06;;;7.44;53.30
21011;BME280;10663;42.714;23.274;2023-04-27T04:04:59;94603.09;;;7.51;53.11
21011;BME280;10663;42.714;23.274;2023-04-27T04:06:29;94623.69;;;7.55;52.76
21011;BME280;10663;42.714;23.274;2023-04-27T04:08:01;94628.66;;;7.29;53.42
21011;BME280;10663;42.714;23.274;2023-04-27T04:09:32;94626.22;;;7.44;53.07
21011;BME280;10663;42.714;23.274;2023-04-27T04:11:03;94617.53;;;7.44;53.09
21011;BME280;10663;42.714;23.274;2023-04-27T04:12:34;94629.03;;;7.38;52.76
21011;BME280;10663;42.714;23.274;2023-04-27T04:14:05;94629.81;;;7.38;53.51
21011;BME280;10663;42.714;23.274;2023-04-27T04:16:03;94640.13;;;7.40;53.32
21011;BME280;10663;42.714;23.274;2023-04-27T04:17:34;94630.56;;;7.34;53.36
21011;BME280;10663;42.714;23.274;2023-04-27T04:19:11;94646.50;;;7.44;53.29
21011;BME280;10663;42.714;23.274;2023-04-27T04:20:43;94630.50;;;7.50;52.81
21011;BME280;10663;42.714;23.274;2023-04-27T04:22:14;94647.59;;;7.48;52.63
21011;BME280;10663;42.714;23.274;2023-04-27T04:23:45;94633.34;;;7.71;52.14
21011;BME280;10663;42.714;23.274;2023-04-27T04:25:16;94637.13;;;7.53;52.60
21011;BME280;10663;42.714;23.274;2023-04-27T04:26:50;94639.19;;;7.51;53.10
21011;BME280;10663;42.714;23.274;2023-04-27T04:28:22;94646.06;;;7.52;52.87
21011;BME280;10663;42.714;23.274;2023-04-27T04:29:53;94641.34;;;7.54;52.55
21011;BME280;10663;42.714;23.274;2023-04-27T04:31:25;94646.97;;;7.63;52.45
21011;BME280;10663;42.714;23.274;2023-04-27T04:32:57;94637.03;;;7.70;52.17
21011;BME280;10663;42.714;23.274;2023-04-27T04:34:28;94649.38;;;7.64;52.56
21011;BME280;10663;42.714;23.274;2023-04-27T04:36:02;94654.88;;;7.63;52.82
21011;BME280;10663;42.714;23.274;2023-04-27T04:37:34;94650.16;;;7.65;52.10
21011;BME280;10663;42.714;23.274;2023-04-27T04:39:06;94663.94;;;7.50;52.59
21011;BME280;10663;42.714;23.274;2023-04-27T04:40:38;94658.31;;;7.41;53.13
21011;BME280;10663;42.714;23.274;2023-04-27T04:42:09;94653.53;;;7.60;52.68
21011;BME280;10663;42.714;23.274;2023-04-27T04:43:41;94657.72;;;7.83;52.62
21011;BME280;10663;42.714;23.274;2023-04-27T04:45:12;94656.16;;;7.38;53.32
21011;BME280;10663;42.714;23.274;2023-04-27T04:46:43;94668.63;;;7.43;53.20
21011;BME280;10663;42.714;23.274;2023-04-27T04:48:14;94655.47;;;7.70;52.36
21011;BME280;10663;42.714;23.274;2023-04-27T04:49:46;94658.81;;;7.87;52.01
21011;BME280;10663;42.714;23.274;2023-04-27T04:51:17;94674.19;;;7.95;51.92
21011;BME280;10663;42.714;23.274;2023-04-27T04:52:48;94674.41;;;7.88;52.16
21011;BME280;10663;42.714;23.274;2023-04-27T04:54:22;94674.53;;;7.77;52.01
21011;BME280;10663;42.714;23.274;2023-04-27T04:55:53;94671.09;;;7.76;52.41
21011;BME280;10663;42.714;23.274;2023-04-27T04:57:24;94671.97;;;7.82;52.71
21011;BME280;10663;42.714;23.274;2023-04-27T04:58:55;94674.44;;;7.94;52.50
21011;BME280;10663;42.714;23.274;2023-04-27T05:00:26;94681.72;;;8.08;52.16
21011;BME280;10663;42.714;23.274;2023-04-27T05:01:57;94672.31;;;8.44;51.21
21011;BME280;10663;42.714;23.274;2023-04-27T05:03:28;94679.91;;;8.41;51.52
21011;BME280;10663;42.714;23.274;2023-04-27T05:04:59;94671.66;;;8.32;50.40
21011;BME280;10663;42.714;23.274;2023-04-27T05:06:30;94680.75;;;8.19;51.51
21011;BME280;10663;42.714;23.274;2023-04-27T05:08:01;94680.81;;;8.24;51.45
21011;BME280;10663;42.714;23.274;2023-04-27T05:09:32;94678.53;;;8.33;51.22
21011;BME280;10663;42.714;23.274;2023-04-27T05:11:03;94673.09;;;8.18;52.20
21011;BME280;10663;42.714;23.274;2023-04-27T05:12:34;94676.31;;;8.52;51.53
21011;BME280;10663;42.714;23.274;2023-04-27T05:14:05;94677.31;;;8.78;50.72
21011;BME280;10663;42.714;23.274;2023-04-27T05:15:36;94680.34;;;9.01;50.51
21011;BME280;10663;42.714;23.274;2023-04-27T05:17:07;94687.38;;;8.81;50.57
21011;BME280;10663;42.714;23.274;2023-04-27T05:18:37;94685.63;;;9.01;50.12
21011;BME280;10663;42.714;23.274;2023-04-27T05:20:08;94678.00;;;9.57;49.19
21011;BME280;10663;42.714;23.274;2023-04-27T05:21:40;94681.31;;;9.90;48.22
21011;BME280;10663;42.714;23.274;2023-04-27T05:23:11;94681.09;;;9.34;48.74
21011;BME280;10663;42.714;23.274;2023-04-27T05:24:42;94680.94;;;9.56;47.26
21011;BME280;10663;42.714;23.274;2023-04-27T05:26:17;94686.31;;;9.24;48.37
21011;BME280;10663;42.714;23.274;2023-04-27T05:27:48;94685.19;;;9.15;49.06
21011;BME280;10663;42.714;23.274;2023-04-27T05:29:19;94691.56;;;9.19;48.88
21011;BME280;10663;42.714;23.274;2023-04-27T05:30:50;94690.78;;;9.18;48.75
21011;BME280;10663;42.714;23.274;2023-04-27T05:32:21;94685.25;;;9.25;48.50
21011;BME280;10663;42.714;23.274;2023-04-27T05:33:52;94685.38;;;9.45;48.32
21011;BME280;10663;42.714;23.274;2023-04-27T05:35:23;94692.56;;;9.08;49.26
21011;BME280;10663;42.714;23.274;2023-04-27T05:36:54;94686.44;;;9.49;48.42
21011;BME280;10663;42.714;23.274;2023-04-27T05:38:25;94697.63;;;9.71;47.61
21011;BME280;10663;42.714;23.274;2023-04-27T05:39:56;94697.09;;;9.64;47.36
21011;BME280;10663;42.714;23.274;2023-04-27T05:41:28;94699.63;;;9.44;48.17
21011;BME280;10663;42.714;23.274;2023-04-27T05:42:59;94695.50;;;9.63;47.50
21011;BME280;10663;42.714;23.274;2023-04-27T05:44:33;94708.66;;;9.53;48.03
21011;BME280;10663;42.714;23.274;2023-04-27T05:46:04;94698.50;;;9.30;48.50
21011;BME280;10663;42.714;23.274;2023-04-27T05:47:35;94696.63;;;9.30;48.77
21011;BME280;10663;42.714;23.274;2023-04-27T05:49:06;94682.94;;;9.33;48.23
21011;BME280;10663;42.714;23.274;2023-04-27T05:50:37;94696.00;;;9.55;48.09
21011;BME280;10663;42.714;23.274;2023-04-27T05:52:08;94691.31;;;9.72;47.56
21011;BME280;10663;42.714;23.274;2023-04-27T05:53:38;94701.50;;;9.49;48.02
21011;BME280;10663;42.714;23.274;2023-04-27T05:55:09;94706.78;;;9.49;48.08
21011;BME280;10663;42.714;23.274;2023-04-27T05:56:40;94694.88;;;9.46;48.25
21011;BME280;10663;42.714;23.274;2023-04-27T05:58:11;94700.06;;;9.88;46.65
21011;BME280;10663;42.714;23.274;2023-04-27T05:59:42;94687.53;;;9.11;49.03
21011;BME280;10663;42.714;23.274;2023-04-27T06:01:13;94697.94;;;9.80;47.29
21011;BME280;10663;42.714;23.274;2023-04-27T06:02:44;94699.28;;;9.88;47.30
21011;BME280;10663;42.714;23.274;2023-04-27T06:04:15;94694.31;;;10.11;46.31
21011;BME280;10663;42.714;23.274;2023-04-27T06:05:46;94704.56;;;9.88;46.48
21011;BME280;10663;42.714;23.274;2023-04-27T06:07:17;94708.22;;;9.76;46.19
21011;BME280;10663;42.714;23.274;2023-04-27T06:08:48;94707.88;;;9.53;46.77
21011;BME280;10663;42.714;23.274;2023-04-27T06:10:19;94707.31;;;9.46;46.83
21011;BME280;10663;42.714;23.274;2023-04-27T06:11:50;94704.22;;;9.69;46.95
21011;BME280;10663;42.714;23.274;2023-04-27T06:13:21;94709.59;;;9.94;46.30
21011;BME280;10663;42.714;23.274;2023-04-27T06:14:52;94714.06;;;9.84;46.67
21011;BME280;10663;42.714;23.274;2023-04-27T06:16:23;94715.47;;;10.01;46.29
21011;BME280;10663;42.714;23.274;2023-04-27T06:17:54;94707.25;;;10.03;45.56
21011;BME280;10663;42.714;23.274;2023-04-27T06:19:25;94719.88;;;9.86;46.25
21011;BME280;10663;42.714;23.274;2023-04-27T06:21:00;94707.09;;;10.35;45.56
21011;BME280;10663;42.714;23.274;2023-04-27T06:22:31;94709.72;;;10.30;45.17
21011;BME280;10663;42.714;23.274;2023-04-27T06:24:02;94700.19;;;10.24;45.23
21011;BME280;10663;42.714;23.274;2023-04-27T06:25:33;94686.72;;;10.71;44.55
21011;BME280;10663;42.714;23.274;2023-04-27T06:27:05;94689.91;;;10.42;45.41
21011;BME280;10663;42.714;23.274;2023-04-27T06:28:36;94674.28;;;10.92;44.17
21011;BME280;10663;42.714;23.274;2023-04-27T06:30:07;94711.09;;;10.73;43.90
21011;BME280;10663;42.714;23.274;2023-04-27T06:31:38;94690.34;;;10.09;45.83
21011;BME280;10663;42.714;23.274;2023-04-27T06:33:09;94686.72;;;10.96;44.22
21011;BME280;10663;42.714;23.274;2023-04-27T06:34:39;94678.22;;;11.04;43.45
21011;BME280;10663;42.714;23.274;2023-04-27T06:36:11;94688.03;;;10.83;43.83
21011;BME280;10663;42.714;23.274;2023-04-27T06:37:42;94698.09;;;10.76;44.47
21011;BME280;10663;42.714;23.274;2023-04-27T06:39:14;94684.63;;;10.63;44.46
21011;BME280;10663;42.714;23.274;2023-04-27T06:40:51;94685.16;;;10.65;44.78
21011;BME280;10663;42.714;23.274;2023-04-27T06:42:23;94686.44;;;10.93;44.11
21011;BME280;10663;42.714;23.274;2023-04-27T06:43:54;94684.56;;;11.18;43.42
21011;BME280;10663;42.714;23.274;2023-04-27T06:45:25;94685.13;;;11.00;43.05
21011;BME280;10663;42.714;23.274;2023-04-27T06:46:56;94674.78;;;11.09;42.60
21011;BME280;10663;42.714;23.274;2023-04-27T06:48:29;94675.31;;;10.85;42.51
21011;BME280;10663;42.714;23.274;2023-04-27T06:50:00;94695.75;;;10.80;42.93
21011;BME280;10663;42.714;23.274;2023-04-27T06:51:33;94679.28;;;10.93;42.67
21011;BME280;10663;42.714;23.274;2023-04-27T06:53:05;94683.56;;;10.64;43.19
21011;BME280;10663;42.714;23.274;2023-04-27T06:54:36;94691.75;;;11.08;42.56
21011;BME280;10663;42.714;23.274;2023-04-27T06:56:10;94667.38;;;11.01;42.78
21011;BME280;10663;42.714;23.274;2023-04-27T06:57:41;94671.34;;;11.08;42.44
21011;BME280;10663;42.714;23.274;2023-04-27T06:59:12;94694.41;;;10.77;43.26
21011;BME280;10663;42.714;23.274;2023-04-27T07:00:43;94672.38;;;11.17;43.27
21011;BME280;10663;42.714;23.274;2023-04-27T07:02:14;94669.31;;;11.59;41.85
21011;BME280;10663;42.714;23.274;2023-04-27T07:03:44;94671.69;;;11.66;42.06
21011;BME280;10663;42.714;23.274;2023-04-27T07:05:16;94674.09;;;11.57;42.38
21011;BME280;10663;42.714;23.274;2023-04-27T07:06:46;94662.34;;;11.84;41.26
21011;BME280;10663;42.714;23.274;2023-04-27T07:08:20;94669.16;;;11.20;42.10
21011;BME280;10663;42.714;23.274;2023-04-27T07:09:51;94670.34;;;11.74;41.40
21011;BME280;10663;42.714;23.274;2023-04-27T07:11:22;94665.03;;;11.69;41.81
21011;BME280;10663;42.714;23.274;2023-04-27T07:12:53;94687.63;;;11.61;41.74
21011;BME280;10663;42.714;23.274;2023-04-27T07:14:24;94663.63;;;11.96;40.96
21011;BME280;10663;42.714;23.274;2023-04-27T07:15:55;94680.53;;;11.46;40.98
21011;BME280;10663;42.714;23.274;2023-04-27T07:17:30;94668.88;;;11.32;41.62
21011;BME280;10663;42.714;23.274;2023-04-27T07:19:04;94672.78;;;11.65;40.64
21011;BME280;10663;42.714;23.274;2023-04-27T07:20:39;94679.91;;;11.70;40.51
21011;BME280;10663;42.714;23.274;2023-04-27T07:22:11;94675.97;;;11.57;40.44
21011;BME280;10663;42.714;23.274;2023-04-27T07:23:42;94672.22;;;11.68;40.22
21011;BME280;10663;42.714;23.274;2023-04-27T07:25:13;94680.19;;;11.63;40.91
21011;BME280;10663;42.714;23.274;2023-04-27T07:26:46;94673.25;;;11.77;39.49
21011;BME280;10663;42.714;23.274;2023-04-27T07:28:17;94660.16;;;11.96;39.31
21011;BME280;10663;42.714;23.274;2023-04-27T07:29:48;94684.94;;;11.66;40.30
21011;BME280;10663;42.714;23.274;2023-04-27T07:31:19;94670.81;;;11.91;38.94
21011;BME280;10663;42.714;23.274;2023-04-27T07:32:50;94666.88;;;11.83;40.06
21011;BME280;10663;42.714;23.274;2023-04-27T07:34:24;94675.91;;;11.82;39.05
21011;BME280;10663;42.714;23.274;2023-04-27T07:35:55;94697.94;;;11.78;39.10
21011;BME280;10663;42.714;23.274;2023-04-27T07:37:26;94699.34;;;11.40;39.72
21011;BME280;10663;42.714;23.274;2023-04-27T07:38:58;94682.03;;;11.73;38.90
21011;BME280;10663;42.714;23.274;2023-04-27T07:40:29;94668.44;;;11.84;38.84
21011;BME280;10663;42.714;23.274;2023-04-27T07:42:02;94683.34;;;11.75;38.80
21011;BME280;10663;42.714;23.274;2023-04-27T07:43:33;94676.19;;;11.66;38.89
21011;BME280;10663;42.714;23.274;2023-04-27T07:45:05;94658.53;;;12.05;38.83
21011;BME280;10663;42.714;23.274;2023-04-27T07:46:36;94679.38;;;12.22;38.80
21011;BME280;10663;42.714;23.274;2023-04-27T07:48:08;94666.88;;;11.78;39.33
21011;BME280;10663;42.714;23.274;2023-04-27T07:49:39;94680.13;;;11.88;38.69
21011;BME280;10663;42.714;23.274;2023-04-27T07:51:10;94674.84;;;11.68;38.69
21011;BME280;10663;42.714;23.274;2023-04-27T07:52:45;94675.38;;;11.75;39.30
21011;BME280;10663;42.714;23.274;2023-04-27T07:54:16;94665.34;;;11.62;39.14
21011;BME280;10663;42.714;23.274;2023-04-27T07:55:47;94665.56;;;11.66;39.50
21011;BME280;10663;42.714;23.274;2023-04-27T07:57:17;94661.88;;;12.21;38.44
21011;BME280;10663;42.714;23.274;2023-04-27T07:58:49;94674.09;;;12.22;38.14
21011;BME280;10663;42.714;23.274;2023-04-27T08:00:21;94662.25;;;12.04;38.61
21011;BME280;10663;42.714;23.274;2023-04-27T08:01:52;94663.34;;;12.42;37.33
21011;BME280;10663;42.714;23.274;2023-04-27T08:03:23;94674.50;;;12.39;37.28